Weather at Washington Dulles International Airport

Public forecast

Using degrees Fahrenheit for public forecast. Weather courtesy of forecast.io.

Current aviation weather report (METAR) for Washington Dulles International Airport

Retrieved 2021/10/22 04:52 UTC (2 hours ago):

KIAD 220452Z 21010KT 10SM BKN110 19/13 A2983 RMK AO2 SLP098 T01940133 402500067

Aviation forecast (TAF) for Washington Dulles International Airport

Retrieved 2021/10/22 06:39 UTC (0 seconds ago):

TAF KIAD 220536Z 2206/2312 21011KT P6SM VCSH BKN110 WS020/22045KT FM220800 32008G16KT P6SM SCT130 FM221500 33008KT P6SM BKN050 FM222300 33003KT P6SM BKN050